createdAt,value
2022-08-19T00:03:59.581Z,21.03
2022-08-19T00:09:05.886Z,21.60
2022-08-19T00:14:12.271Z,14.43
2022-08-19T00:19:19.603Z,14.45
2022-08-19T00:24:25.937Z,15.07
2022-08-19T00:29:32.336Z,21.37
2022-08-19T00:34:38.664Z,21.40
2022-08-19T00:39:44.931Z,14.39
2022-08-19T00:44:50.706Z,14.39
2022-08-19T00:49:57.012Z,14.03
2022-08-19T00:55:03.437Z,13.83
2022-08-19T01:00:09.697Z,14.04
2022-08-19T01:05:16.178Z,14.11
2022-08-19T01:10:23.882Z,14.94
2022-08-19T01:15:30.272Z,14.88
2022-08-19T01:20:36.683Z,13.90
2022-08-19T01:25:43.001Z,14.56
2022-08-19T01:30:51.065Z,14.06
2022-08-19T01:35:54.606Z,20.68
2022-08-19T01:41:01.936Z,14.22
2022-08-19T01:46:07.730Z,14.72
2022-08-19T01:51:14.004Z,14.25
2022-08-19T01:56:20.243Z,20.38
2022-08-19T02:01:26.674Z,20.10
2022-08-19T02:06:32.475Z,20.65
2022-08-19T02:11:38.901Z,15.21
2022-08-19T02:16:46.966Z,14.50
2022-08-19T02:21:52.188Z,14.80
2022-08-19T02:26:58.531Z,22.30
2022-08-19T02:32:04.794Z,14.31
2022-08-19T02:37:11.170Z,21.63
2022-08-19T02:42:17.428Z,21.12
2022-08-19T02:47:23.707Z,14.38
2022-08-19T02:52:29.935Z,14.97
2022-08-19T02:57:36.429Z,14.73
2022-08-19T03:02:42.696Z,15.11
2022-08-19T03:07:48.954Z,22.44
2022-08-19T03:12:55.239Z,15.00
2022-08-19T03:18:02.507Z,14.80
2022-08-19T03:23:08.396Z,14.38
2022-08-19T03:28:14.770Z,15.15
2022-08-19T03:33:24.950Z,14.57
2022-08-19T03:38:28.727Z,15.07
2022-08-19T03:43:37.193Z,22.10
2022-08-19T03:48:42.692Z,22.15
2022-08-19T03:53:49.617Z,15.05
2022-08-19T03:58:55.960Z,22.38
2022-08-19T04:04:02.451Z,15.14
2022-08-19T04:09:08.791Z,22.89
2022-08-19T04:14:15.271Z,15.40
2022-08-19T04:19:21.947Z,15.19
2022-08-19T04:24:28.818Z,23.09
2022-08-19T04:29:35.324Z,15.57
2022-08-19T04:35:02.316Z,25.35
2022-08-19T04:39:47.904Z,16.48
2022-08-19T04:44:54.307Z,16.86
2022-08-19T04:50:00.867Z,24.90
2022-08-19T04:55:08.615Z,24.12
2022-08-19T05:00:17.323Z,15.20
2022-08-19T05:05:25.038Z,13.96
2022-08-19T05:10:31.492Z,22.21
2022-08-19T05:15:39.211Z,15.42
2022-08-19T05:25:47.077Z,22.64
2022-08-19T05:34:07.401Z,14.33
2022-08-19T05:36:08.104Z,14.80
2022-08-19T05:41:07.481Z,14.95
2022-08-19T05:46:17.104Z,15.33
2022-08-19T05:51:15.215Z,15.16
2022-08-19T05:56:23.402Z,14.57
2022-08-19T06:01:33.055Z,14.57
2022-08-19T06:06:44.519Z,14.58
2022-08-19T06:11:50.888Z,15.27
2022-08-19T06:16:49.003Z,14.86
2022-08-19T06:21:59.663Z,14.11
2022-08-19T06:27:01.639Z,13.79
2022-08-19T06:32:00.104Z,20.82
2022-08-19T06:37:10.990Z,13.64
2022-08-19T06:42:17.752Z,14.11
2022-08-19T06:47:23.911Z,14.02
2022-08-19T06:52:34.071Z,13.22
2022-08-19T06:57:29.422Z,13.36
2022-08-19T07:02:36.081Z,13.40
2022-08-19T07:07:43.153Z,13.80
2022-08-19T07:12:49.430Z,26.64
2022-08-19T07:17:55.663Z,18.30
2022-08-19T07:23:01.946Z,27.05
2022-08-19T07:28:07.916Z,17.99
2022-08-19T07:33:13.749Z,18.68
2022-08-19T07:38:19.574Z,27.62
2022-08-19T07:43:25.844Z,17.93
2022-08-19T07:48:31.878Z,17.77
2022-08-19T07:53:39.938Z,17.29
2022-08-19T07:58:44.297Z,17.37
2022-08-19T08:03:50.541Z,17.06
2022-08-19T08:08:56.985Z,16.94
2022-08-19T08:14:04.711Z,15.22
2022-08-19T08:19:20.550Z,21.47
2022-08-19T08:24:15.644Z,14.63
2022-08-19T08:29:21.953Z,14.62
2022-08-19T08:34:28.336Z,14.44
2022-08-19T08:39:34.702Z,12.88
2022-08-19T08:44:41.076Z,11.68
2022-08-19T08:49:46.909Z,9.98
2022-08-19T08:54:55.435Z,10.38
2022-08-19T08:59:58.685Z,10.62
2022-08-19T09:05:06.596Z,12.72
2022-08-19T09:10:12.921Z,15.22
2022-08-19T09:15:19.203Z,9.40
2022-08-19T09:20:26.122Z,11.37
2022-08-19T09:25:31.021Z,9.89
2022-08-19T09:30:37.386Z,8.92
2022-08-19T09:35:53.298Z,9.40
2022-08-19T09:40:49.716Z,13.44
2022-08-19T09:45:55.949Z,11.89
2022-08-19T09:51:02.237Z,12.03
2022-08-19T09:56:09.412Z,12.84
2022-08-19T10:01:14.449Z,9.69
2022-08-19T10:06:43.934Z,17.97
2022-08-19T10:11:39.980Z,14.02
2022-08-19T10:16:33.932Z,16.45
2022-08-19T10:21:40.447Z,11.96
2022-08-19T10:26:45.876Z,13.18
2022-08-19T10:32:01.342Z,22.16
2022-08-19T10:37:00.956Z,13.74
2022-08-19T10:42:05.712Z,12.91
2022-08-19T10:47:17.377Z,13.08
2022-08-19T10:52:18.789Z,12.07
2022-08-19T10:57:23.801Z,9.77
2022-08-19T11:02:31.200Z,14.95
2022-08-19T11:07:37.552Z,9.52
2022-08-19T11:12:43.989Z,10.27
2022-08-19T11:17:50.331Z,10.64
2022-08-19T11:22:56.633Z,9.68
2022-08-19T11:28:02.948Z,9.29
2022-08-19T11:33:10.328Z,11.22
2022-08-19T11:38:17.777Z,6.94
2022-08-19T11:43:23.607Z,7.26
2022-08-19T11:48:29.936Z,7.59
2022-08-19T11:53:36.345Z,6.60
2022-08-19T11:58:42.682Z,7.22
2022-08-19T12:03:49.010Z,6.45
2022-08-19T12:08:55.427Z,8.51
2022-08-19T12:14:01.768Z,6.51
2022-08-19T12:19:08.082Z,9.81
2022-08-19T12:24:14.666Z,6.32
2022-08-19T12:29:23.703Z,6.14
2022-08-19T12:34:27.134Z,6.21
2022-08-19T12:39:33.582Z,5.76
2022-08-19T12:44:41.534Z,6.01
2022-08-19T12:49:53.365Z,6.24
2022-08-19T12:54:54.699Z,4.98
2022-08-19T12:59:59.159Z,8.20
2022-08-19T13:05:06.794Z,6.52
2022-08-19T13:10:13.225Z,7.08
2022-08-19T13:15:23.983Z,5.06
2022-08-19T13:20:29.699Z,5.89
2022-08-19T13:25:36.037Z,8.27
2022-08-19T13:30:42.493Z,9.22
2022-08-19T13:35:49.573Z,4.35
2022-08-19T13:40:55.944Z,6.50
2022-08-19T13:46:02.407Z,4.29
2022-08-19T13:51:08.725Z,4.63
2022-08-19T13:56:15.866Z,6.84
2022-08-19T14:01:23.715Z,6.19
2022-08-19T14:06:28.354Z,5.82
2022-08-19T14:11:34.949Z,5.97
2022-08-19T14:16:42.627Z,5.59
2022-08-19T14:21:49.399Z,6.54
2022-08-19T14:26:55.716Z,4.96
2022-08-19T14:32:02.191Z,5.34
2022-08-19T14:37:08.981Z,5.68
2022-08-19T14:42:14.753Z,5.44
2022-08-19T14:47:21.110Z,6.91
2022-08-19T14:52:27.126Z,5.44
2022-08-19T14:57:33.528Z,5.58
2022-08-19T15:02:41.251Z,5.78
2022-08-19T15:07:46.705Z,5.28
2022-08-19T15:12:53.208Z,4.86
2022-08-19T15:17:59.634Z,5.42
2022-08-19T15:23:05.767Z,5.38
2022-08-19T15:28:12.060Z,5.31
2022-08-19T15:33:18.366Z,5.86
2022-08-19T15:38:28.553Z,5.34
2022-08-19T15:43:33.475Z,4.51
2022-08-19T15:48:39.950Z,4.25
2022-08-19T15:53:51.933Z,3.77
2022-08-19T15:58:55.855Z,3.62
2022-08-19T16:04:02.401Z,3.69
2022-08-19T16:09:09.200Z,2.51
2022-08-19T16:14:15.681Z,2.94
2022-08-19T16:19:22.007Z,2.53
2022-08-19T16:24:28.367Z,3.14
2022-08-19T16:34:34.778Z,2.47
2022-08-19T16:39:41.121Z,3.02
2022-08-19T16:44:47.211Z,2.77
2022-08-19T16:49:55.454Z,2.34
2022-08-19T16:54:59.513Z,2.76
2022-08-19T17:00:06.010Z,2.30
2022-08-19T17:05:12.295Z,2.02
2022-08-19T17:10:18.629Z,2.26
2022-08-19T17:15:24.940Z,2.06
2022-08-19T17:20:32.470Z,2.23
2022-08-19T17:25:38.802Z,1.87
2022-08-19T17:30:45.140Z,2.06
2022-08-19T17:35:51.950Z,1.22
2022-08-19T17:40:58.389Z,1.44
2022-08-19T17:46:04.308Z,1.42
2022-08-19T17:51:10.643Z,1.29
2022-08-19T17:56:17.218Z,1.55
2022-08-19T18:01:23.554Z,1.84
2022-08-19T18:06:31.387Z,1.44
2022-08-19T18:11:41.032Z,1.31
2022-08-19T18:16:48.024Z,1.36
2022-08-19T18:21:55.692Z,1.39
2022-08-19T18:27:03.918Z,1.51
2022-08-19T18:32:10.527Z,1.47
2022-08-19T18:37:16.832Z,1.49
2022-08-19T18:42:25.146Z,2.91
2022-08-19T18:47:36.173Z,2.42
2022-08-19T18:52:41.315Z,1.51
2022-08-19T18:57:37.102Z,2.12
2022-08-19T19:02:43.345Z,1.79
2022-08-19T19:07:49.730Z,2.11
2022-08-19T19:13:11.101Z,2.15
2022-08-19T19:18:08.270Z,3.32
2022-08-19T19:23:12.492Z,2.09
2022-08-19T19:28:09.431Z,1.95
2022-08-19T19:33:20.378Z,2.86
2022-08-19T19:38:19.251Z,1.82
2022-08-19T19:43:28.835Z,2.56
2022-08-19T19:48:59.452Z,1.72
2022-08-19T19:53:46.328Z,1.88
2022-08-19T19:58:43.219Z,2.30
2022-08-19T20:04:01.714Z,2.41
2022-08-19T20:08:55.106Z,2.43
2022-08-19T20:14:07.989Z,1.65
2022-08-19T20:19:10.164Z,1.54
2022-08-19T20:24:10.297Z,1.78
2022-08-19T20:29:39.238Z,2.92
2022-08-19T20:34:17.257Z,1.96
2022-08-19T20:39:17.433Z,2.11
2022-08-19T20:44:17.081Z,1.92
2022-08-19T20:49:35.096Z,2.90
2022-08-19T20:54:42.583Z,1.73
2022-08-19T20:59:46.116Z,2.44
2022-08-19T21:04:46.535Z,1.42
2022-08-19T21:09:45.313Z,2.15
2022-08-19T21:14:54.058Z,1.40
2022-08-19T21:20:05.906Z,1.39
2022-08-19T21:26:41.263Z,1.27
2022-08-19T21:30:11.824Z,1.24
2022-08-19T21:35:19.038Z,1.25
2022-08-19T21:40:14.872Z,1.20
2022-08-19T21:45:13.848Z,1.20
2022-08-19T21:50:28.598Z,1.13
2022-08-19T21:55:15.084Z,1.49
2022-08-19T22:00:44.923Z,1.34
2022-08-19T22:05:41.055Z,1.11
2022-08-19T22:10:33.614Z,1.20
2022-08-19T22:15:33.420Z,1.05
2022-08-19T22:20:37.245Z,1.51
2022-08-19T22:25:39.123Z,0.99
2022-08-19T22:30:47.253Z,1.20
2022-08-19T22:35:59.320Z,1.06
2022-08-19T22:43:21.233Z,0.98
2022-08-19T22:45:52.148Z,0.83
2022-08-19T22:51:08.045Z,1.07
2022-08-19T22:56:00.005Z,1.02
2022-08-19T23:01:14.750Z,0.83
2022-08-19T23:06:33.853Z,0.96
2022-08-19T23:11:12.671Z,0.90
2022-08-19T23:16:13.541Z,0.95
2022-08-19T23:21:16.361Z,1.66
2022-08-19T23:26:48.932Z,1.50
2022-08-19T23:31:15.180Z,1.51
2022-08-19T23:36:30.818Z,1.97
2022-08-19T23:41:29.183Z,1.32
2022-08-19T23:46:42.243Z,1.32
2022-08-19T23:51:48.195Z,1.57
2022-08-19T23:56:52.249Z,1.77
